Time;durP1;ratioP1;P1;durP2;ratioP2;P2;SDS_P1;SDS_P2;PMS_P1;PMS_P2;Temp;Humidity;BMP_temperature;BMP_pressure;BME280_temperature;BME280_humidity;BME280_pressure;Samples;Min_cycle;Max_cycle;Signal;HPM_P1;HPM_P2
2023/05/19 00:00:50;;;;;;;2.83;2.00;;;;;;;8.74;76.36;101231.03;5025646;28;20215;-68
2023/05/19 00:03:20;;;;;;;4.57;2.17;;;;;;;8.61;78.73;101234.09;5042160;28;20206;-67
2023/05/19 00:05:47;;;;;;;4.70;2.50;;;;;;;8.61;77.91;101235.84;5037477;28;20213;-67
2023/05/19 00:08:17;;;;;;;4.77;2.30;;;;;;;8.65;78.06;101241.28;5033580;28;20212;-67
2023/05/19 00:10:44;;;;;;;3.57;2.17;;;;;;;8.56;78.28;101233.03;5041157;28;20275;-68
2023/05/19 00:13:11;;;;;;;7.30;2.40;;;;;;;8.46;79.50;101236.22;5025069;28;20200;-65
2023/05/19 00:15:38;;;;;;;4.50;2.13;;;;;;;8.68;79.51;101236.09;5036057;28;20218;-65
2023/05/19 00:18:07;;;;;;;5.30;2.30;;;;;;;8.74;79.13;101238.94;5037630;28;20238;-65
2023/05/19 00:20:34;;;;;;;6.47;2.50;;;;;;;8.71;79.13;101237.94;5027672;28;20238;-65
2023/05/19 00:23:00;;;;;;;5.70;2.70;;;;;;;8.64;79.92;101234.19;5029587;28;20205;-66
2023/05/19 00:25:27;;;;;;;5.77;3.17;;;;;;;8.65;79.31;101233.34;5035143;28;20197;-66
2023/05/19 00:27:53;;;;;;;3.63;2.40;;;;;;;8.54;80.17;101232.09;5035344;28;20224;-66
2023/05/19 00:30:21;;;;;;;3.70;2.60;;;;;;;8.53;81.30;101226.75;5031514;28;20199;-67
2023/05/19 00:32:48;;;;;;;4.87;2.63;;;;;;;8.53;80.37;101224.13;5026659;28;20652;-67
2023/05/19 00:35:15;;;;;;;5.73;2.47;;;;;;;8.44;82.06;101229.97;5027319;28;20223;-67
2023/05/19 00:37:41;;;;;;;5.43;2.53;;;;;;;8.32;81.88;101222.47;5030029;28;20715;-69
2023/05/19 00:40:09;;;;;;;5.47;2.53;;;;;;;8.18;83.40;101227.25;5030088;28;20200;-68
2023/05/19 00:42:35;;;;;;;9.27;4.30;;;;;;;8.07;85.49;101217.16;5026953;28;20196;-67
2023/05/19 00:45:02;;;;;;;5.53;2.77;;;;;;;8.02;87.13;101221.38;5031013;28;20204;-68
2023/05/19 00:47:28;;;;;;;4.20;2.53;;;;;;;7.89;87.04;101216.47;5009073;28;20718;-68
2023/05/19 00:49:55;;;;;;;6.23;3.03;;;;;;;7.90;87.62;101213.88;5038902;28;20230;-68
2023/05/19 00:52:21;;;;;;;5.03;2.60;;;;;;;7.86;87.79;101206.72;5030564;28;20234;-67
2023/05/19 00:54:50;;;;;;;6.20;2.60;;;;;;;7.80;88.23;101206.47;5029836;28;20254;-69
2023/05/19 00:57:16;;;;;;;4.50;2.30;;;;;;;7.75;89.00;101208.94;5031932;28;20315;-68
2023/05/19 00:59:43;;;;;;;6.20;2.70;;;;;;;7.81;88.40;101203.91;5024059;28;20195;-68
2023/05/19 01:02:10;;;;;;;7.03;2.90;;;;;;;7.80;89.27;101199.47;5030020;28;20689;-67
2023/05/19 01:04:40;;;;;;;5.03;2.63;;;;;;;7.73;89.64;101208.00;5022587;28;20197;-67
2023/05/19 01:07:07;;;;;;;6.03;2.73;;;;;;;7.72;89.32;101195.66;5034971;28;20219;-68
2023/05/19 01:09:33;;;;;;;5.93;2.73;;;;;;;7.65;89.66;101198.00;5036891;28;20301;-69
2023/05/19 01:12:00;;;;;;;6.63;3.30;;;;;;;7.58;90.13;101196.84;5032317;28;20210;-68
2023/05/19 01:14:27;;;;;;;5.17;2.30;;;;;;;7.55;89.70;101196.72;5019438;28;20220;-68
2023/05/19 01:17:13;;;;;;;3.60;2.33;;;;;;;7.68;88.37;101200.75;5029719;28;20220;-69
2023/05/19 01:19:55;;;;;;;4.73;2.23;;;;;;;7.58;88.54;101202.13;5028802;28;20218;-68
2023/05/19 01:22:33;;;;;;;6.83;2.70;;;;;;;7.47;89.57;101195.53;5030538;28;20219;-68
2023/05/19 01:25:30;;;;;;;3.80;2.60;;;;;;;7.35;90.00;101192.44;5031516;28;20605;-68
2023/05/19 01:28:25;;;;;;;5.73;2.30;;;;;;;7.30;91.24;101196.63;5036678;28;20809;-68
2023/05/19 01:30:54;;;;;;;3.23;2.30;;;;;;;7.26;91.36;101198.25;5029780;28;20199;-67
2023/05/19 01:33:23;;;;;;;6.43;2.60;;;;;;;7.37;91.73;101201.31;5034649;28;20199;-67
2023/05/19 01:35:50;;;;;;;6.13;2.60;;;;;;;7.31;90.97;101206.34;5031318;28;20222;-67
2023/05/19 01:38:19;;;;;;;5.73;2.17;;;;;;;7.21;91.23;101199.81;5024178;28;20219;-68
2023/05/19 01:40:46;;;;;;;4.13;2.50;;;;;;;7.19;92.04;101197.09;5036008;28;20212;-69
2023/05/19 01:43:17;;;;;;;5.93;2.33;;;;;;;7.20;92.92;101197.97;5038288;28;20199;-68
2023/05/19 01:45:44;;;;;;;5.90;2.70;;;;;;;7.18;92.89;101203.19;5023569;28;20192;-68
2023/05/19 01:48:12;;;;;;;6.40;2.50;;;;;;;7.14;93.55;101203.00;5024938;28;20266;-68
2023/05/19 01:50:40;;;;;;;5.07;2.20;;;;;;;7.12;93.41;101197.69;5026644;28;20199;-68
2023/05/19 01:53:07;;;;;;;10.53;3.00;;;;;;;7.13;94.24;101203.84;5024982;28;20249;-68
2023/05/19 01:55:39;;;;;;;5.83;2.10;;;;;;;7.09;93.97;101197.56;5024377;28;20215;-67
2023/05/19 01:58:16;;;;;;;5.67;2.80;;;;;;;7.09;94.30;101201.94;5024038;28;20212;-71
2023/05/19 02:01:09;;;;;;;4.03;2.40;;;;;;;7.16;93.50;101191.69;5028782;28;20204;-70
2023/05/19 02:03:52;;;;;;;6.80;2.40;;;;;;;7.24;92.85;101205.19;5019787;28;20196;-69
2023/05/19 02:06:31;;;;;;;3.20;2.00;;;;;;;7.32;92.34;101201.13;5025387;28;20278;-68
2023/05/19 02:09:14;;;;;;;6.27;2.30;;;;;;;7.33;91.65;101208.19;5035866;28;20203;-67
2023/05/19 02:12:04;;;;;;;5.43;2.10;;;;;;;7.40;91.86;101210.22;5024869;28;20202;-68
2023/05/19 02:14:55;;;;;;;5.27;2.20;;;;;;;7.52;90.84;101213.31;5021642;28;20249;-68
2023/05/19 02:17:22;;;;;;;4.83;2.30;;;;;;;7.58;90.46;101207.38;5035218;28;20214;-68
2023/05/19 02:19:49;;;;;;;4.50;2.27;;;;;;;7.50;90.57;101208.84;5035374;28;20202;-68
2023/05/19 02:22:16;;;;;;;8.67;2.67;;;;;;;7.44;91.00;101214.78;5034328;28;20200;-68
2023/05/19 02:24:43;;;;;;;4.23;2.60;;;;;;;7.41;91.22;101205.84;5042798;28;20256;-68
2023/05/19 02:27:10;;;;;;;5.20;2.47;;;;;;;7.40;91.25;101204.97;5026484;28;20318;-70
2023/05/19 02:29:36;;;;;;;7.03;2.50;;;;;;;7.34;91.54;101210.00;5038972;28;20216;-68
2023/05/19 02:32:03;;;;;;;5.00;2.13;;;;;;;7.30;91.73;101201.91;5034987;28;20221;-67
2023/05/19 02:34:30;;;;;;;4.10;2.30;;;;;;;7.27;91.37;101199.16;5041922;28;20209;-68
2023/05/19 02:36:56;;;;;;;3.60;2.00;;;;;;;7.29;91.38;101202.75;5028902;28;20219;-69
2023/05/19 02:39:23;;;;;;;5.57;2.30;;;;;;;7.24;91.72;101194.66;5033887;28;20197;-68
2023/05/19 02:41:49;;;;;;;3.77;2.30;;;;;;;7.21;92.22;101195.44;5034871;28;20205;-67
2023/05/19 02:44:15;;;;;;;5.67;2.60;;;;;;;7.25;91.70;101187.66;5029064;28;20196;-68
2023/05/19 02:46:42;;;;;;;3.47;2.00;;;;;;;7.16;92.04;101189.06;5038706;28;20226;-68
2023/05/19 02:49:08;;;;;;;3.93;2.20;;;;;;;7.17;92.26;101179.44;5035102;28;20245;-68
2023/05/19 02:51:35;;;;;;;3.20;2.40;;;;;;;7.15;92.60;101175.84;5034846;28;20566;-67
2023/05/19 02:54:01;;;;;;;4.87;2.30;;;;;;;7.24;92.06;101186.75;5028668;28;20198;-69
2023/05/19 02:56:28;;;;;;;3.07;2.40;;;;;;;7.20;91.72;101169.94;5035034;28;20202;-68
2023/05/19 02:58:55;;;;;;;4.37;2.33;;;;;;;7.25;91.82;101179.75;5029329;28;20193;-69
2023/05/19 03:01:21;;;;;;;3.87;2.10;;;;;;;7.24;91.84;101176.22;5027407;28;20237;-67
2023/05/19 03:03:48;;;;;;;2.47;1.90;;;;;;;7.22;92.32;101176.16;5028826;28;20220;-69
2023/05/19 03:06:16;;;;;;;4.67;2.13;;;;;;;7.26;91.56;101163.09;5031731;28;20204;-67
2023/05/19 03:08:43;;;;;;;5.63;2.20;;;;;;;7.35;91.00;101177.53;5028833;28;20292;-68
2023/05/19 03:11:10;;;;;;;3.37;2.20;;;;;;;7.31;91.15;101174.72;5030401;28;20725;-67
2023/05/19 03:13:36;;;;;;;6.97;2.87;;;;;;;7.32;91.10;101179.16;5031950;28;20250;-69
2023/05/19 03:16:03;;;;;;;3.57;2.50;;;;;;;7.33;90.84;101181.84;5037623;28;20247;-70
2023/05/19 03:18:29;;;;;;;3.07;2.00;;;;;;;7.23;91.87;101170.06;5030097;28;20221;-69
2023/05/19 03:20:55;;;;;;;5.13;2.40;;;;;;;7.35;90.97;101187.16;5032701;28;20758;-68
2023/05/19 03:23:22;;;;;;;3.73;2.00;;;;;;;7.27;90.88;101181.59;5033423;28;20224;-68
2023/05/19 03:25:49;;;;;;;2.87;2.00;;;;;;;7.26;91.25;101179.81;5034473;28;20690;-67
2023/05/19 03:28:16;;;;;;;5.83;2.40;;;;;;;7.21;91.32;101179.63;5027365;28;20276;-68
2023/05/19 03:30:42;;;;;;;3.17;2.10;;;;;;;7.18;92.31;101186.50;5033603;28;20197;-68
2023/05/19 03:33:09;;;;;;;4.13;2.50;;;;;;;7.20;92.12;101184.81;5037849;28;20576;-67
2023/05/19 03:35:35;;;;;;;10.33;2.50;;;;;;;7.17;92.04;101189.97;5034511;28;20718;-68
2023/05/19 03:38:02;;;;;;;3.80;2.50;;;;;;;7.18;92.20;101189.13;5026252;28;20313;-68
2023/05/19 03:40:28;;;;;;;3.87;2.50;;;;;;;7.22;91.77;101191.06;5012376;28;20208;-68
2023/05/19 03:42:55;;;;;;;3.80;2.40;;;;;;;7.29;91.33;101181.66;5023452;28;20196;-71
2023/05/19 03:45:22;;;;;;;6.13;2.40;;;;;;;7.37;90.53;101186.38;5029109;28;20691;-68
2023/05/19 03:47:48;;;;;;;5.07;2.10;;;;;;;7.31;90.53;101186.16;5035997;28;20230;-68
2023/05/19 03:50:14;;;;;;;3.30;2.83;;;;;;;7.23;91.00;101191.13;5032245;28;20229;-68
2023/05/19 03:52:44;;;;;;;3.53;2.10;;;;;;;7.15;91.59;101181.09;5030243;28;20573;-68
2023/05/19 03:55:11;;;;;;;5.53;2.37;;;;;;;7.09;91.84;101189.66;5035802;28;20274;-68
2023/05/19 03:57:37;;;;;;;4.60;2.30;;;;;;;7.06;92.69;101189.53;5030862;28;20632;-68
2023/05/19 04:00:05;;;;;;;4.03;2.30;;;;;;;7.03;93.17;101183.25;5027716;28;20207;-70
2023/05/19 04:02:31;;;;;;;3.27;2.20;;;;;;;6.98;93.81;101190.06;5044612;28;20719;-67
2023/05/19 04:04:57;;;;;;;7.83;2.43;;;;;;;6.96;94.38;101190.00;5032911;28;20222;-68
2023/05/19 04:07:24;;;;;;;5.37;2.20;;;;;;;6.96;94.29;101183.84;5037944;28;20225;-68
2023/05/19 04:09:50;;;;;;;6.27;2.20;;;;;;;7.00;94.54;101186.66;5033824;28;20226;-68
2023/05/19 04:12:17;;;;;;;4.83;2.37;;;;;;;7.05;95.01;101192.13;5023321;28;20682;-67
2023/05/19 04:14:44;;;;;;;4.33;2.57;;;;;;;7.15;94.33;101189.00;5041916;28;20312;-67
2023/05/19 04:17:10;;;;;;;5.37;2.40;;;;;;;7.19;94.07;101197.09;5036736;28;20230;-69
2023/05/19 04:19:37;;;;;;;6.97;2.23;;;;;;;7.27;93.64;101204.44;5037837;28;20201;-68
2023/05/19 04:22:03;;;;;;;5.67;2.40;;;;;;;7.40;93.06;101201.41;5034424;28;20199;-67
2023/05/19 04:24:30;;;;;;;4.67;2.57;;;;;;;7.45;92.16;101197.22;5033405;28;20237;-68
2023/05/19 04:27:01;;;;;;;3.47;2.27;;;;;;;7.47;91.78;101195.53;5038411;28;20371;-70
2023/05/19 04:29:28;;;;;;;7.37;2.43;;;;;;;7.53;91.73;101196.69;5036302;28;20616;-67
2023/05/19 04:31:56;;;;;;;3.97;2.50;;;;;;;7.58;91.38;101196.84;5042355;28;20665;-67
2023/05/19 04:34:22;;;;;;;4.60;2.63;;;;;;;7.61;91.55;101199.63;5034075;28;20223;-67
2023/05/19 04:36:48;;;;;;;3.77;2.20;;;;;;;7.65;91.07;101206.81;5033329;28;20233;-67
2023/05/19 04:39:18;;;;;;;3.77;2.73;;;;;;;7.73;92.01;101209.72;5037917;28;20196;-67
2023/05/19 04:41:45;;;;;;;5.07;2.70;;;;;;;7.79;91.61;101205.59;5030759;28;20331;-68
2023/05/19 04:44:12;;;;;;;5.53;2.50;;;;;;;7.88;91.38;101210.28;5026410;28;20234;-68
2023/05/19 04:46:38;;;;;;;6.20;2.80;;;;;;;8.02;90.81;101216.09;5032641;28;20226;-70
2023/05/19 04:49:05;;;;;;;5.60;2.73;;;;;;;8.21;90.23;101205.38;5034167;28;20202;-70
2023/05/19 04:51:31;;;;;;;6.20;3.00;;;;;;;8.28;89.68;101214.41;5032120;28;20209;-69
2023/05/19 04:53:58;;;;;;;5.03;2.53;;;;;;;8.40;88.84;101212.22;5029386;28;20294;-68
2023/05/19 04:56:26;;;;;;;5.40;2.40;;;;;;;8.47;88.42;101219.53;5037023;28;20223;-69
2023/05/19 04:58:52;;;;;;;3.80;2.40;;;;;;;8.51;88.35;101212.63;5033424;28;20199;-69
2023/05/19 05:01:21;;;;;;;4.47;2.20;;;;;;;8.56;88.35;101211.94;5033473;28;20222;-69
2023/05/19 05:03:47;;;;;;;4.27;2.13;;;;;;;8.61;88.38;101212.09;5027495;28;20202;-69
2023/05/19 05:06:15;;;;;;;6.60;2.63;;;;;;;8.66;88.54;101214.03;5027981;28;20278;-69
2023/05/19 05:08:41;;;;;;;4.23;2.40;;;;;;;8.73;88.43;101199.28;5030683;28;20191;-69
2023/05/19 05:11:08;;;;;;;4.67;2.53;;;;;;;8.85;88.39;101199.72;5036560;28;20681;-69
2023/05/19 05:13:35;;;;;;;5.03;2.53;;;;;;;9.11;87.76;101198.81;5029106;28;20219;-70
2023/05/19 05:16:05;;;;;;;6.43;2.87;;;;;;;9.32;86.28;101210.91;5029640;28;20212;-69
2023/05/19 05:18:32;;;;;;;4.87;2.67;;;;;;;9.52;84.97;101204.50;5032651;28;20594;-69
2023/05/19 05:20:59;;;;;;;7.60;2.77;;;;;;;9.63;84.26;101199.56;5023865;28;20210;-69
2023/05/19 05:23:26;;;;;;;6.57;3.07;;;;;;;9.84;83.92;101208.09;5039130;28;20206;-69
2023/05/19 05:25:52;;;;;;;14.83;3.13;;;;;;;10.05;82.91;101211.41;5032442;28;20207;-69
2023/05/19 05:28:19;;;;;;;7.03;2.57;;;;;;;10.23;81.17;101204.84;5030387;28;20693;-69
2023/05/19 05:30:46;;;;;;;5.83;2.60;;;;;;;10.45;79.67;101201.94;5033486;28;20300;-69
2023/05/19 05:33:12;;;;;;;5.67;2.43;;;;;;;10.65;78.42;101195.41;5028600;28;20208;-69
2023/05/19 05:35:39;;;;;;;5.80;2.93;;;;;;;10.97;77.66;101192.69;5041893;28;20313;-69
2023/05/19 05:38:05;;;;;;;5.50;2.40;;;;;;;11.17;76.95;101201.09;5037212;28;20229;-69
2023/05/19 05:40:32;;;;;;;5.57;2.30;;;;;;;11.25;75.44;101205.75;5032224;28;20199;-69
2023/05/19 05:42:58;;;;;;;5.03;2.37;;;;;;;11.43;75.46;101199.06;5036953;28;20232;-69
2023/05/19 05:45:25;;;;;;;4.33;2.47;;;;;;;11.55;74.62;101204.63;5048871;28;20205;-69
2023/05/19 05:47:51;;;;;;;6.07;2.30;;;;;;;11.69;73.59;101199.66;5032563;28;20229;-69
2023/05/19 05:50:18;;;;;;;8.37;2.57;;;;;;;12.26;71.28;101199.09;5031451;28;20199;-70
2023/05/19 05:52:46;;;;;;;5.13;2.33;;;;;;;12.96;69.18;101193.28;5036109;28;20197;-69
2023/05/19 05:55:13;;;;;;;3.47;2.00;;;;;;;12.97;67.96;101191.53;5028441;28;20219;-69
2023/05/19 05:57:42;;;;;;;5.33;2.20;;;;;;;12.93;69.23;101189.69;5027283;28;20280;-67
2023/05/19 06:00:14;;;;;;;4.47;1.90;;;;;;;12.97;66.58;101189.75;5023048;28;20201;-67
2023/05/19 06:02:46;;;;;;;5.83;2.20;;;;;;;13.05;65.67;101193.44;5016200;28;20486;-67
2023/05/19 06:05:12;;;;;;;3.37;2.00;;;;;;;13.07;64.40;101188.13;5024008;28;20284;-67
2023/05/19 06:07:39;;;;;;;3.07;1.77;;;;;;;13.09;63.85;101186.41;5019858;28;20214;-68
2023/05/19 06:10:07;;;;;;;6.00;2.10;;;;;;;13.17;63.95;101190.09;5030295;28;20209;-67
2023/05/19 06:12:34;;;;;;;2.87;1.80;;;;;;;13.26;62.98;101192.94;5030680;28;20282;-67
2023/05/19 06:15:02;;;;;;;7.73;1.93;;;;;;;13.37;62.60;101186.00;5029813;28;20303;-67
2023/05/19 06:17:28;;;;;;;9.37;2.10;;;;;;;13.47;61.54;101189.69;5040258;28;20299;-68
2023/05/19 06:19:55;;;;;;;4.47;2.10;;;;;;;13.77;61.33;101184.78;5037013;28;20196;-69
2023/05/19 06:22:21;;;;;;;7.10;2.07;;;;;;;14.85;59.10;101186.91;5039242;28;20284;-69
2023/05/19 06:24:48;;;;;;;5.83;1.83;;;;;;;15.21;55.18;101189.88;5040946;28;20214;-70
2023/05/19 06:27:14;;;;;;;5.07;1.83;;;;;;;14.66;51.92;101184.03;5046060;28;20313;-75
2023/05/19 06:29:40;;;;;;;3.17;1.90;;;;;;;14.49;53.03;101177.66;5038404;28;20202;-73
2023/05/19 06:32:07;;;;;;;3.37;1.70;;;;;;;14.31;53.58;101180.09;5037833;28;20650;-72
2023/05/19 06:34:33;;;;;;;3.97;2.00;;;;;;;14.24;53.67;101187.13;5048382;28;20221;-73
2023/05/19 06:37:01;;;;;;;5.00;2.20;;;;;;;14.27;53.86;101179.16;5035981;28;20245;-73
2023/05/19 06:39:27;;;;;;;5.80;1.80;;;;;;;14.34;52.73;101178.34;5027565;28;20639;-73
2023/05/19 06:41:54;;;;;;;4.93;1.70;;;;;;;14.38;52.33;101174.84;5031239;28;20207;-73
2023/05/19 06:44:21;;;;;;;4.20;1.90;;;;;;;14.40;52.52;101177.50;5047923;28;20546;-74
2023/05/19 06:46:48;;;;;;;2.83;1.53;;;;;;;14.47;52.09;101167.88;5037657;28;20718;-75
2023/05/19 06:49:14;;;;;;;6.00;2.13;;;;;;;14.59;51.95;101174.22;5044919;28;20217;-77
2023/05/19 06:51:41;;;;;;;4.93;2.00;;;;;;;14.80;52.15;101183.25;5041903;28;20444;-77
2023/05/19 06:54:09;;;;;;;11.67;6.10;;;;;;;14.71;51.75;101176.09;5042630;28;20598;-77
2023/05/19 06:56:36;;;;;;;4.23;2.60;;;;;;;15.03;50.95;101179.03;5042168;28;20612;-77
2023/05/19 06:59:02;;;;;;;9.23;2.43;;;;;;;15.66;49.00;101175.06;5044587;28;20229;-75
2023/05/19 07:01:29;;;;;;;4.90;2.20;;;;;;;16.49;45.61;101169.09;5046771;28;20287;-77
2023/05/19 07:03:56;;;;;;;6.17;2.17;;;;;;;17.07;44.17;101177.19;5035970;28;20204;-77
2023/05/19 07:06:22;;;;;;;6.17;3.30;;;;;;;18.26;40.97;101173.28;5047780;28;20210;-76
2023/05/19 07:08:49;;;;;;;4.63;2.30;;;;;;;18.87;39.26;101173.81;5011322;28;20208;-73
2023/05/19 07:11:16;;;;;;;3.83;2.10;;;;;;;19.50;37.36;101192.91;5017144;28;20236;-71
2023/05/19 07:13:42;;;;;;;7.13;2.03;;;;;;;19.39;37.12;101179.59;5021050;28;20192;-70
2023/05/19 07:16:09;;;;;;;7.83;2.30;;;;;;;19.69;36.31;101177.53;5019574;28;20708;-70
2023/05/19 07:18:35;;;;;;;9.37;2.73;;;;;;;20.20;35.62;101178.69;5009437;28;20571;-69
2023/05/19 07:21:02;;;;;;;4.63;2.53;;;;;;;19.76;35.74;101170.28;5011040;28;20686;-68
2023/05/19 07:23:28;;;;;;;5.10;2.30;;;;;;;20.02;35.89;101165.50;5024722;28;20199;-68
2023/05/19 07:25:55;;;;;;;4.87;2.40;;;;;;;19.25;36.54;101170.78;5028402;28;20196;-68
2023/05/19 07:28:22;;;;;;;4.47;2.13;;;;;;;18.66;37.74;101169.50;5026836;28;20231;-69
2023/05/19 07:30:48;;;;;;;4.47;2.77;;;;;;;18.60;38.03;101160.56;5011021;28;20208;-69
2023/05/19 07:33:15;;;;;;;5.00;2.83;;;;;;;18.73;38.10;101168.53;5019255;28;20196;-69
2023/05/19 07:35:41;;;;;;;6.73;2.20;;;;;;;18.89;37.66;101163.06;5027810;28;20233;-69
2023/05/19 07:38:08;;;;;;;9.07;2.40;;;;;;;18.88;39.02;101166.66;5014488;28;20235;-68
2023/05/19 07:40:34;;;;;;;6.90;2.70;;;;;;;18.58;38.90;101160.56;5014276;28;20192;-68
2023/05/19 07:43:00;;;;;;;8.03;2.50;;;;;;;17.94;40.15;101163.59;5014792;28;20203;-69
2023/05/19 07:45:27;;;;;;;11.10;2.17;;;;;;;17.88;39.42;101169.00;5026785;28;20206;-68
2023/05/19 07:47:53;;;;;;;6.03;2.53;;;;;;;18.72;38.75;101155.13;4976497;28;1174448;-68
2023/05/19 07:50:20;;;;;;;5.53;2.67;;;;;;;19.52;37.04;101161.53;5012048;28;20209;-68
2023/05/19 07:52:46;;;;;;;6.70;3.07;;;;;;;19.55;36.73;101158.84;5027574;28;20208;-68
2023/05/19 07:55:13;;;;;;;4.83;2.47;;;;;;;19.80;36.76;101153.22;5028892;28;20207;-69
2023/05/19 07:57:40;;;;;;;6.93;2.10;;;;;;;20.44;35.66;101155.06;5019503;28;20251;-67
2023/05/19 08:00:08;;;;;;;3.33;1.60;;;;;;;20.36;35.60;101157.81;5022719;28;20204;-67
2023/05/19 08:02:35;;;;;;;7.73;2.90;;;;;;;20.32;35.31;101146.22;5022175;28;20202;-67
2023/05/19 08:05:01;;;;;;;5.23;2.10;;;;;;;19.60;36.41;101158.78;5029192;28;20234;-69
2023/05/19 08:07:28;;;;;;;3.93;1.73;;;;;;;19.39;36.71;101152.72;5017428;28;20656;-69
2023/05/19 08:09:54;;;;;;;3.77;1.83;;;;;;;19.00;37.73;101148.63;4993905;28;20211;-69
2023/05/19 08:12:20;;;;;;;3.13;1.90;;;;;;;18.45;39.65;101151.72;5013804;28;20211;-69
2023/05/19 08:14:47;;;;;;;6.30;2.07;;;;;;;18.61;39.28;101148.94;5017863;28;20210;-72
2023/05/19 08:17:13;;;;;;;3.93;2.33;;;;;;;18.48;38.96;101158.88;5011693;28;20293;-73
2023/05/19 08:19:40;;;;;;;6.63;2.37;;;;;;;18.69;39.09;101153.38;5017059;28;20197;-71
2023/05/19 08:22:09;;;;;;;8.07;1.87;;;;;;;18.32;39.58;101144.63;5018437;28;20200;-71
2023/05/19 08:24:36;;;;;;;5.07;2.10;;;;;;;18.48;39.69;101142.78;5022196;28;20581;-71
2023/05/19 08:27:03;;;;;;;5.70;2.33;;;;;;;18.33;39.71;101142.84;5014892;28;20591;-72
2023/05/19 08:29:30;;;;;;;5.27;2.00;;;;;;;18.34;40.11;101136.59;5031568;28;20199;-68
2023/05/19 08:31:57;;;;;;;5.83;1.90;;;;;;;17.98;39.75;101143.03;5027699;28;20196;-68
2023/05/19 08:34:23;;;;;;;3.23;1.90;;;;;;;17.82;40.66;101144.91;5020992;28;20250;-68
2023/05/19 08:36:50;;;;;;;5.67;2.07;;;;;;;17.94;40.71;101139.50;5025298;28;20230;-69
2023/05/19 08:39:18;;;;;;;5.80;2.20;;;;;;;17.91;39.45;101139.50;5027058;28;20664;-68
2023/05/19 08:41:44;;;;;;;3.77;1.80;;;;;;;18.06;39.76;101131.41;5033765;28;20250;-68
2023/05/19 08:44:11;;;;;;;4.10;1.97;;;;;;;17.84;40.05;101125.25;5020794;28;20206;-70
2023/05/19 08:46:37;;;;;;;3.97;2.00;;;;;;;18.22;40.86;101123.25;5025552;28;20219;-68
2023/05/19 08:49:11;;;;;;;5.27;1.73;;;;;;;18.32;39.16;101130.34;5023085;28;20700;-68
2023/05/19 08:52:00;;;;;;;4.07;1.80;;;;;;;17.94;38.51;101127.88;5019250;28;20224;-68
2023/05/19 08:54:34;;;;;;;4.87;1.87;;;;;;;18.08;39.00;101109.94;5025897;28;20234;-68
2023/05/19 08:57:01;;;;;;;5.87;2.10;;;;;;;18.43;38.38;101113.31;5029087;28;20322;-68
2023/05/19 08:59:29;;;;;;;5.03;1.83;;;;;;;18.58;37.98;101116.75;5029927;28;20277;-69
2023/05/19 09:01:58;;;;;;;3.57;1.80;;;;;;;18.34;38.35;101121.38;5019647;28;20200;-69
2023/05/19 09:04:26;;;;;;;2.93;1.90;;;;;;;18.16;37.90;101103.63;5017198;28;20200;-68
2023/05/19 09:06:55;;;;;;;3.23;1.90;;;;;;;18.06;37.32;101103.72;5028582;28;20302;-69
2023/05/19 09:09:22;;;;;;;3.80;1.80;;;;;;;18.08;39.06;101101.91;5026168;28;20203;-68
2023/05/19 09:11:50;;;;;;;4.67;1.80;;;;;;;18.15;37.77;101099.19;5020208;28;20287;-68
2023/05/19 09:14:17;;;;;;;3.50;1.60;;;;;;;18.25;37.22;101096.44;5025502;28;20299;-68
2023/05/19 09:16:44;;;;;;;4.70;1.60;;;;;;;18.20;37.14;101098.25;5025587;28;20658;-67
2023/05/19 09:19:16;;;;;;;5.57;1.90;;;;;;;18.26;37.79;101087.47;5029558;28;20199;-68
2023/05/19 09:21:44;;;;;;;4.37;1.67;;;;;;;18.37;37.46;101088.28;5022748;28;20196;-67
2023/05/19 09:24:10;;;;;;;5.80;1.90;;;;;;;18.53;36.80;101089.09;5024257;28;20200;-68
2023/05/19 09:26:38;;;;;;;3.63;1.70;;;;;;;18.41;35.76;101095.41;5026506;28;20814;-68
2023/05/19 09:29:15;;;;;;;4.27;1.63;;;;;;;18.28;36.39;101085.69;5030496;28;20202;-68
2023/05/19 09:31:49;;;;;;;6.10;2.27;;;;;;;18.31;36.84;101088.34;5020965;28;20206;-68
2023/05/19 09:34:16;;;;;;;3.43;1.70;;;;;;;18.44;36.57;101090.06;5017971;28;20222;-68
2023/05/19 09:36:43;;;;;;;4.07;1.70;;;;;;;18.83;36.40;101079.91;5026578;28;20223;-68
2023/05/19 09:39:13;;;;;;;4.27;1.53;;;;;;;19.40;35.52;101073.03;5027550;28;20292;-68
2023/05/19 09:41:40;;;;;;;3.23;1.60;;;;;;;19.88;33.82;101063.47;5023539;28;20196;-68
2023/05/19 09:44:11;;;;;;;3.17;1.60;;;;;;;19.97;33.10;101063.34;5017743;28;20197;-69
2023/05/19 09:46:37;;;;;;;6.63;1.77;;;;;;;19.79;32.78;101077.06;5025577;28;20208;-68
2023/05/19 09:49:08;;;;;;;5.50;1.80;;;;;;;19.93;33.69;101074.16;5026656;28;20585;-68
2023/05/19 09:51:36;;;;;;;2.07;1.63;;;;;;;19.51;33.70;101059.47;5029673;28;20319;-67
2023/05/19 09:54:03;;;;;;;5.17;1.77;;;;;;;19.60;34.11;101057.56;5030042;28;20208;-67
2023/05/19 09:56:38;;;;;;;6.93;1.80;;;;;;;19.15;34.19;101068.84;5031290;28;20215;-68
2023/05/19 09:59:06;;;;;;;3.67;1.50;;;;;;;19.35;34.25;101058.78;5033103;28;20708;-67
2023/05/19 10:01:35;;;;;;;3.93;1.90;;;;;;;19.64;34.14;101053.97;5030683;28;20285;-67
2023/05/19 10:04:03;;;;;;;4.13;1.73;;;;;;;19.90;33.95;101040.16;5027604;28;20295;-67
2023/05/19 10:06:31;;;;;;;7.27;2.00;;;;;;;20.15;33.33;101046.06;5019821;28;20578;-67
2023/05/19 10:08:58;;;;;;;4.43;1.70;;;;;;;20.37;33.24;101029.56;5014833;28;20200;-68
2023/05/19 10:11:26;;;;;;;4.43;1.70;;;;;;;20.84;32.29;101034.19;5031466;28;20295;-68
2023/05/19 10:13:52;;;;;;;6.63;1.80;;;;;;;21.12;32.86;101034.53;5032826;28;20294;-70
2023/05/19 10:16:20;;;;;;;3.77;1.70;;;;;;;20.80;32.34;101027.94;5027291;28;20219;-67
2023/05/19 10:18:50;;;;;;;4.87;1.77;;;;;;;20.78;32.05;101029.75;5022127;28;20206;-67
2023/05/19 10:21:17;;;;;;;6.40;1.77;;;;;;;20.74;32.48;101029.84;5021201;28;20243;-68
2023/05/19 10:23:43;;;;;;;7.17;2.00;;;;;;;20.69;32.78;101027.25;5030087;28;20574;-67
2023/05/19 10:26:10;;;;;;;4.97;1.70;;;;;;;20.86;33.79;101024.25;5024983;28;20624;-68
2023/05/19 10:28:39;;;;;;;7.27;2.20;;;;;;;21.15;32.64;101021.88;5020018;28;20293;-68
2023/05/19 10:31:10;;;;;;;5.90;1.90;;;;;;;21.26;32.38;101017.22;5025965;28;20204;-68
2023/05/19 10:34:03;;;;;;;3.83;1.65;;;;;;;21.36;31.62;101017.03;5017164;28;20211;-67
2023/05/19 10:36:48;;;;;;;5.43;1.80;;;;;;;21.32;31.72;101008.13;5032394;28;20683;-68
2023/05/19 10:39:26;;;;;;;5.07;2.00;;;;;;;21.59;31.50;101002.09;5024428;28;20675;-68
2023/05/19 10:42:18;;;;;;;3.70;2.00;;;;;;;21.86;31.22;101006.00;5024652;28;20232;-68
2023/05/19 10:44:56;;;;;;;7.70;2.28;;;;;;;21.27;31.25;101005.53;5023339;28;20692;-68
2023/05/19 10:47:26;;;;;;;12.77;1.90;;;;;;;21.50;28.58;101014.91;5059083;23;20218;-74
2023/05/19 10:49:53;;;;;;;5.28;1.70;;;;;;;21.28;29.01;101003.72;5052364;28;20607;-74
2023/05/19 10:52:21;;;;;;;4.20;1.52;;;;;;;21.45;29.75;101003.34;5024744;28;20582;-72
2023/05/19 10:54:48;;;;;;;3.88;2.03;;;;;;;21.75;30.25;101002.69;5050755;28;20292;-73
2023/05/19 10:57:16;;;;;;;2.92;1.95;;;;;;;22.34;29.54;101005.78;5054912;28;20603;-75
2023/05/19 10:59:46;;;;;;;3.35;1.83;;;;;;;22.98;29.58;100998.72;5062674;28;20341;-70
2023/05/19 11:02:41;;;;;;;3.85;2.00;;;;;;;23.41;28.88;101000.19;5042592;28;20206;-72
2023/05/19 11:05:16;;;;;;;5.68;1.98;;;;;;;23.47;28.97;101002.69;5057669;28;20203;-72
2023/05/19 11:07:54;;;;;;;6.90;2.05;;;;;;;23.43;28.40;101006.44;5038715;28;20214;-73
2023/05/19 11:10:24;;;;;;;2.67;1.60;;;;;;;23.67;26.91;101007.56;5061487;28;20199;-74
2023/05/19 11:12:51;;;;;;;6.03;1.90;;;;;;;24.01;26.96;101018.16;5067121;28;20199;-72
2023/05/19 11:15:24;;;;;;;3.15;1.63;;;;;;;23.16;26.95;101004.50;5064961;28;20735;-71
2023/05/19 11:17:51;;;;;;;3.63;1.90;;;;;;;23.10;27.92;101000.16;5060406;28;20304;-73
2023/05/19 11:20:28;;;;;;;5.53;1.65;;;;;;;22.93;28.20;101005.19;5054724;28;20202;-74
2023/05/19 11:23:09;;;;;;;4.57;2.00;;;;;;;23.37;28.25;101001.19;5062791;28;20681;-71
2023/05/19 11:25:50;;;;;;;5.13;2.00;;;;;;;23.58;27.77;100997.00;5058580;28;20212;-74
2023/05/19 11:28:19;;;;;;;2.72;1.70;;;;;;;23.43;28.62;100984.78;5053750;28;20261;-72
2023/05/19 11:30:50;;;;;;;5.88;1.60;;;;;;;22.60;29.31;100993.44;5063397;28;20202;-69
2023/05/19 11:33:18;;;;;;;6.70;1.67;;;;;;;21.99;29.71;100987.72;5061552;28;20615;-72
2023/05/19 11:35:46;;;;;;;6.38;1.77;;;;;;;21.88;29.43;100998.75;5062873;28;20201;-71